Архив погоды в Гдове

Метеограмма Гдов
Четверг, 18 Октября
Время местн. Темп Ветер Видим Явления Облачность нижн/средн/верх Атм. давл. Влжн Точка росы ВНГО R Сост. почвы Tg s
Напр Скр Прв ур.ст ур.м изм
00:00 +9.4° Ю,Ю-З 2 - 20 км - ясно 763 767 -0.1 90% +7.8° более 2.5 км - - - -
Среда, 17 Октября
Время местн. Темп Ветер Видим Явления Облачность нижн/средн/верх Атм. давл. Влжн Точка росы ВНГО R Сост. почвы Tg s
Напр Скр Прв ур.ст ур.м изм
21:00 +8.7° Ю 2 - 20 км - ясно 763 767 -0.2 92% +7.5° более 2.5 км 0 - - -
18:00 +12.2° Ю 2 - 20 км - ясно 763 767 -0.6 80% +8.8° более 2.5 км - - - -
15:00 +15.3° Ю,Ю-З 3 - 20 км - ясно 764 767 -0.5 67% +9.3° более 2.5 км - - - -
12:00 +12.3° Ю 2 - 20 км - незначительная облачность 764 768 +0.3 81% +9.2° - - - - -
09:00 +4.2° Ю-В 1 - 10 км сплошной поземный туман ясно 764 768 +0.5 100% +4.2° более 2.5 км 0 - - -
06:00 +4.1° Ю 2 - 10 км сплошной поземный туман ясно 763 767 -0.3 100% +4.1° более 2.5 км - - - -
03:00 +3.2° В 1 - 10 км - ясно 764 767 +0.3 100% +3.2° более 2.5 км - - - -
00:00 +5° штиль 0 - 10 км - ясно 763 767 +0.2 100% +5° более 2.5 км - - - -
Вторник, 16 Октября
Время местн. Темп Ветер Видим Явления Облачность нижн/средн/верх Атм. давл. Влжн Точка росы ВНГО R Сост. почвы Tg s
Напр Скр Прв ур.ст ур.м изм
21:00 +6° Ю 1 - 10 км сплошной поземный туман ясно 763 767 +0.7 99% +5.9° более 2.5 км 0 - - -
18:00 +12.4° Ю-З 2 - 20 км - ясно 762 766 +0.3 79% +8.8° более 2.5 км - - - -
15:00 +15.3° Ю,Ю-З 5 - 20 км - ясно 762 766 -0.1 65% +8.7° более 2.5 км - - - -
12:00 +12° Ю,Ю-З 5 - 20 км - незначительная облачность 762 766 +0.5 73% +7.4° более 2.5 км - - - -
09:00 +8.7° Ю 4 - 20 км - облачно с прояснениями 762 765 -0.1 83% +6° более 2.5 км 0 Влажная (без луж) - -
06:00 +8.8° Ю 4 - 20 км - ясно 762 766 -0.9 80% +5.5° более 2.5 км - - - -
03:00 +9.3° Ю 3 - 20 км - ясно 763 766 -0.5 74% +4.9° более 2.5 км - - - -
00:00 +10.8° Ю 3 - 20 км - ясно 763 767 -0.5 69% +5.4° более 2.5 км - - - -
Понедельник, 15 Октября
Время местн. Темп Ветер Видим Явления Облачность нижн/средн/верх Атм. давл. Влжн Точка росы ВНГО R Сост. почвы Tg s
Напр Скр Прв ур.ст ур.м изм
21:00 +12.1° Ю 3 - 20 км - незначительная облачность 764 767 -0.1 72% +7.2° более 2.5 км 0 - - -
18:00 +15.2° Ю 4 - 20 км - незначительная облачность 764 767 -0.3 69% +9.6° более 2.5 км - - - -
15:00 +16.6° Ю 4 - 20 км - ясно 764 768 -0.4 62% +9.2° более 2.5 км - - - -
12:00 +14.1° Ю 5 - 20 км - ясно 764 768 -0.1 65% +7.7° более 2.5 км - - - -
09:00 +10.1° Ю 4 - 20 км - ясно 765 768 -0.3 84% +7.6° более 2.5 км 0 Влажная (без луж) - -
06:00 +9.6° Ю 3 - 20 км - ясно 765 769 -0.7 93% +8.5° более 2.5 км - - - -
03:00 +10.5° Ю 3 - 20 км - ясно 765 769 -0.3 92% +9.3° более 2.5 км - - - -
00:00 +13° Ю,Ю-З 4 - 20 км - ясно 766 769 -0.2 84% +10.3° более 2.5 км - - - -
Воскресенье, 14 Октября
Время местн. Темп Ветер Видим Явления Облачность нижн/средн/верх Атм. давл. Влжн Точка росы ВНГО R Сост. почвы Tg s
Напр Скр Прв ур.ст ур.м изм
21:00 +11.6° Ю 2 - 20 км - ясно 766 770 -0.3 89% +9.8° более 2.5 км 0 - - -